createdAt,value
2023-04-12T00:01:41.581Z,38.72
2023-04-12T00:04:10.446Z,38.96
2023-04-12T00:06:40.367Z,38.97
2023-04-12T00:09:10.283Z,39.36
2023-04-12T00:11:38.439Z,39.47
2023-04-12T00:14:06.408Z,39.89
2023-04-12T00:16:36.234Z,39.81
2023-04-12T00:19:06.634Z,40.15
2023-04-12T00:21:34.728Z,40.32
2023-04-12T00:24:02.708Z,40.42
2023-04-12T00:26:32.412Z,40.60
2023-04-12T00:29:00.909Z,40.93
2023-04-12T00:31:30.024Z,41.03
2023-04-12T00:33:58.785Z,41.01
2023-04-12T00:36:29.118Z,41.45
2023-04-12T00:38:57.444Z,41.62
2023-04-12T00:41:27.568Z,41.65
2023-04-12T00:43:56.169Z,41.89
2023-04-12T00:46:25.389Z,42.25
2023-04-12T00:48:54.068Z,42.60
2023-04-12T00:51:22.780Z,42.65
2023-04-12T00:53:53.672Z,43.05
2023-04-12T00:56:23.716Z,42.80
2023-04-12T00:58:53.978Z,43.05
2023-04-12T01:01:22.747Z,43.15
2023-04-12T01:03:53.351Z,43.30
2023-04-12T01:06:29.793Z,43.42
2023-04-12T01:09:21.803Z,43.58
2023-04-12T01:12:02.345Z,43.71
2023-04-12T01:14:44.761Z,44.00
2023-04-12T01:17:21.127Z,43.96
2023-04-12T01:20:14.010Z,44.42
2023-04-12T01:23:03.016Z,44.52
2023-04-12T01:26:12.840Z,44.39
2023-04-12T01:28:45.883Z,44.97
2023-04-12T01:31:15.033Z,45.01
2023-04-12T01:33:45.493Z,45.44
2023-04-12T01:36:21.652Z,45.69
2023-04-12T01:38:50.924Z,45.68
2023-04-12T01:41:19.201Z,45.87
2023-04-12T01:43:50.120Z,46.07
2023-04-12T01:46:24.012Z,45.93
2023-04-12T01:49:00.152Z,46.10
2023-04-12T01:51:52.293Z,46.17
2023-04-12T01:54:29.457Z,46.18
2023-04-12T01:57:04.056Z,46.32
2023-04-12T01:59:39.283Z,46.42
2023-04-12T02:02:10.681Z,46.26
2023-04-12T02:04:40.186Z,46.30
2023-04-12T02:07:09.728Z,46.50
2023-04-12T02:09:39.410Z,46.38
2023-04-12T02:12:09.890Z,46.48
2023-04-12T02:14:38.515Z,46.59
2023-04-12T02:17:09.211Z,46.45
2023-04-12T02:19:38.218Z,46.68
2023-04-12T02:22:08.425Z,46.42
2023-04-12T02:24:36.501Z,46.51
2023-04-12T02:27:06.147Z,46.66
2023-04-12T02:29:35.195Z,46.74
2023-04-12T02:32:04.708Z,46.73
2023-04-12T02:34:36.781Z,46.77
2023-04-12T02:37:29.319Z,46.81
2023-04-12T02:39:59.113Z,46.89
2023-04-12T02:42:27.316Z,46.85
2023-04-12T02:44:57.124Z,46.88
2023-04-12T02:47:30.551Z,46.85
2023-04-12T02:50:02.704Z,47.02
2023-04-12T02:52:33.248Z,47.02
2023-04-12T02:55:08.369Z,47.10
2023-04-12T02:57:36.274Z,47.15
2023-04-12T03:00:12.019Z,47.25
2023-04-12T03:02:46.247Z,47.29
2023-04-12T03:05:23.546Z,47.48
2023-04-12T03:07:52.602Z,47.60
2023-04-12T03:10:29.783Z,47.65
2023-04-12T03:13:04.960Z,47.79
2023-04-12T03:16:00.013Z,47.61
2023-04-12T03:18:36.528Z,47.72
2023-04-12T03:21:05.777Z,47.95
2023-04-12T03:23:34.169Z,48.03
2023-04-12T03:26:14.628Z,47.78
2023-04-12T03:29:09.627Z,48.02
2023-04-12T03:31:41.573Z,48.10
2023-04-12T03:34:10.822Z,48.08
2023-04-12T03:36:43.849Z,48.03
2023-04-12T03:39:20.249Z,48.41
2023-04-12T03:41:53.473Z,48.35
2023-04-12T03:44:26.837Z,48.54
2023-04-12T03:46:58.502Z,48.71
2023-04-12T03:49:30.302Z,48.75
2023-04-12T03:51:58.888Z,48.75
2023-04-12T03:54:27.622Z,48.85
2023-04-12T03:57:00.414Z,48.99
2023-04-12T03:59:36.196Z,49.02
2023-04-12T04:02:07.084Z,49.06
2023-04-12T04:04:39.305Z,49.38
2023-04-12T04:07:12.007Z,49.68
2023-04-12T04:09:43.810Z,49.85
2023-04-12T04:12:13.249Z,49.93
2023-04-12T04:14:46.050Z,50.03
2023-04-12T04:17:21.199Z,50.17
2023-04-12T04:19:51.310Z,50.37
2023-04-12T04:22:21.665Z,50.28
2023-04-12T04:24:52.381Z,50.28
2023-04-12T04:27:22.304Z,50.09
2023-04-12T04:29:52.908Z,50.23
2023-04-12T04:32:21.559Z,50.21
2023-04-12T04:34:52.626Z,50.38
2023-04-12T04:37:22.735Z,50.16
2023-04-12T04:39:52.814Z,50.53
2023-04-12T04:42:21.679Z,50.53
2023-04-12T04:45:02.765Z,50.79
2023-04-12T04:47:38.628Z,50.33
2023-04-12T04:50:07.742Z,50.24
2023-04-12T04:52:38.430Z,50.36
2023-04-12T04:55:11.636Z,50.30
2023-04-12T04:57:45.430Z,50.22
2023-04-12T05:00:16.448Z,50.44
2023-04-12T05:02:55.566Z,50.45
2023-04-12T05:05:27.189Z,50.29
2023-04-12T05:08:05.677Z,50.34
2023-04-12T05:10:36.134Z,50.51
2023-04-12T05:13:04.572Z,50.59
2023-04-12T05:15:33.294Z,50.61
2023-04-12T05:18:02.238Z,50.52
2023-04-12T05:20:32.012Z,50.86
2023-04-12T05:23:01.267Z,50.77
2023-04-12T05:25:33.460Z,50.85
2023-04-12T05:28:14.134Z,50.87
2023-04-12T05:30:44.875Z,50.90
2023-04-12T05:33:17.786Z,50.95
2023-04-12T05:35:50.177Z,51.14
2023-04-12T05:38:18.362Z,51.08
2023-04-12T05:40:50.522Z,51.15
2023-04-12T05:43:23.741Z,51.17
2023-04-12T05:45:52.011Z,50.99
2023-04-12T05:48:23.151Z,51.28
2023-04-12T05:50:55.433Z,51.29
2023-04-12T05:53:24.361Z,51.11
2023-04-12T05:55:56.178Z,51.47
2023-04-12T05:58:24.959Z,51.63
2023-04-12T06:00:56.225Z,51.55
2023-04-12T06:03:25.770Z,51.84
2023-04-12T06:05:57.258Z,51.42
2023-04-12T06:08:25.800Z,51.59
2023-04-12T06:10:54.185Z,51.72
2023-04-12T06:13:25.735Z,51.79
2023-04-12T06:15:54.297Z,51.78
2023-04-12T06:18:24.009Z,51.77
2023-04-12T06:20:53.248Z,52.14
2023-04-12T06:23:21.389Z,52.03
2023-04-12T06:25:51.240Z,52.06
2023-04-12T06:28:24.238Z,52.19
2023-04-12T06:30:57.582Z,51.97
2023-04-12T06:33:28.613Z,51.95
2023-04-12T06:35:56.889Z,52.10
2023-04-12T06:38:27.616Z,51.76
2023-04-12T06:40:56.119Z,52.09
2023-04-12T06:43:24.204Z,52.15
2023-04-12T06:45:53.829Z,52.27
2023-04-12T06:48:26.122Z,52.34
2023-04-12T06:50:54.177Z,52.44
2023-04-12T06:53:22.923Z,52.44
2023-04-12T06:55:51.156Z,52.53
2023-04-12T06:58:19.703Z,52.67
2023-04-12T07:00:49.753Z,52.56
2023-04-12T07:03:24.310Z,52.41
2023-04-12T07:05:56.782Z,52.43
2023-04-12T07:08:30.110Z,52.25
2023-04-12T07:11:00.649Z,52.23
2023-04-12T07:13:36.806Z,52.41
2023-04-12T07:16:07.971Z,52.46
2023-04-12T07:18:36.698Z,52.27
2023-04-12T07:21:05.443Z,52.42
2023-04-12T07:23:33.375Z,52.48
2023-04-12T07:26:02.770Z,52.69
2023-04-12T07:28:31.120Z,52.63
2023-04-12T07:31:02.915Z,52.70
2023-04-12T07:33:32.118Z,52.90
2023-04-12T07:36:01.136Z,53.00
2023-04-12T07:38:30.710Z,52.96
2023-04-12T07:41:06.258Z,53.17
2023-04-12T07:43:34.574Z,53.36
2023-04-12T07:46:10.183Z,53.06
2023-04-12T07:48:38.436Z,53.23
2023-04-12T07:51:08.680Z,53.12
2023-04-12T07:53:38.026Z,53.23
2023-04-12T07:56:07.895Z,53.29
2023-04-12T07:58:35.913Z,53.28
2023-04-12T08:01:04.058Z,53.28
2023-04-12T08:03:33.281Z,53.36
2023-04-12T08:06:01.474Z,53.18
2023-04-12T08:08:30.495Z,53.29
2023-04-12T08:10:59.026Z,53.39
2023-04-12T08:13:27.188Z,53.40
2023-04-12T08:15:55.339Z,53.48
2023-04-12T08:18:25.814Z,53.44
2023-04-12T08:20:54.217Z,53.24
2023-04-12T08:23:25.927Z,53.26
2023-04-12T08:26:03.699Z,52.98
2023-04-12T08:28:34.209Z,53.12
2023-04-12T08:31:03.576Z,53.39
2023-04-12T08:33:32.290Z,53.43
2023-04-12T08:36:01.125Z,53.22
2023-04-12T08:41:06.748Z,53.33
2023-04-12T08:43:36.772Z,53.42
2023-04-12T08:46:05.713Z,53.40
2023-04-12T08:48:35.179Z,53.65
2023-04-12T08:51:04.170Z,53.39
2023-04-12T08:53:34.071Z,53.42
2023-04-12T08:56:18.732Z,53.31
2023-04-12T09:32:06.340Z,52.42
2023-04-12T09:34:37.220Z,52.38
2023-04-12T09:37:18.344Z,52.37
2023-04-12T09:39:46.897Z,52.64
2023-04-12T09:42:25.622Z,52.57
2023-04-12T09:45:04.425Z,52.42
2023-04-12T09:47:40.975Z,52.16
2023-04-12T09:50:11.881Z,51.97
2023-04-12T09:52:42.330Z,51.92
2023-04-12T09:55:11.389Z,51.91
2023-04-12T09:57:42.873Z,51.90
2023-04-12T10:00:18.083Z,51.88
2023-04-12T10:02:51.800Z,51.86
2023-04-12T10:05:23.401Z,51.71
2023-04-12T10:07:55.233Z,51.63
2023-04-12T10:10:24.129Z,51.57
2023-04-12T10:12:53.606Z,51.42
2023-04-12T10:15:22.128Z,51.41
2023-04-12T10:17:57.552Z,51.52
2023-04-12T10:20:29.577Z,51.66
2023-04-12T10:22:59.457Z,51.44
2023-04-12T10:25:32.646Z,51.40
2023-04-12T10:28:19.194Z,51.23
2023-04-12T10:30:50.294Z,51.26
2023-04-12T10:33:25.337Z,51.06
2023-04-12T10:36:13.053Z,50.98
2023-04-12T10:39:11.272Z,50.90
2023-04-12T10:42:17.940Z,50.92
2023-04-12T10:44:48.386Z,50.73
2023-04-12T10:47:17.401Z,50.89
2023-04-12T10:50:25.905Z,50.61
2023-04-12T10:53:12.608Z,50.60
2023-04-12T10:55:42.543Z,50.66
2023-04-12T10:58:48.814Z,50.49
2023-04-12T11:01:18.543Z,50.54
2023-04-12T11:04:05.254Z,50.41
2023-04-12T11:06:56.779Z,50.48
2023-04-12T11:09:43.324Z,50.45
2023-04-12T11:12:16.584Z,50.49
2023-04-12T11:14:49.047Z,50.22
2023-04-12T11:17:24.293Z,49.88
2023-04-12T11:19:55.934Z,49.99
2023-04-12T11:22:27.296Z,49.82
2023-04-12T11:25:00.694Z,49.59
2023-04-12T11:27:30.364Z,49.48
2023-04-12T11:30:16.755Z,49.15
2023-04-12T11:33:04.831Z,49.18
2023-04-12T11:35:53.117Z,48.93
2023-04-12T11:38:41.636Z,48.53
2023-04-12T11:41:29.912Z,48.72
2023-04-12T11:43:59.626Z,48.49
2023-04-12T11:46:36.031Z,48.34
2023-04-12T11:49:05.115Z,48.64
2023-04-12T11:51:33.721Z,48.32
2023-04-12T11:54:01.658Z,47.67
2023-04-12T11:56:29.834Z,47.11
2023-04-12T11:58:57.968Z,47.05
2023-04-12T12:01:27.765Z,46.96
2023-04-12T12:03:56.249Z,47.11
2023-04-12T12:06:24.999Z,46.87
2023-04-12T12:08:56.180Z,46.48
2023-04-12T12:11:26.493Z,46.24
2023-04-12T12:14:00.278Z,46.07
2023-04-12T12:16:31.125Z,46.35
2023-04-12T12:19:05.518Z,45.97
2023-04-12T12:21:34.666Z,45.76
2023-04-12T12:24:04.430Z,45.87
2023-04-12T12:26:32.340Z,45.84
2023-04-12T12:29:00.761Z,45.83
2023-04-12T12:31:29.113Z,45.83
2023-04-12T12:33:59.408Z,45.71
2023-04-12T12:36:38.603Z,45.48
2023-04-12T12:39:15.373Z,45.80
2023-04-12T12:41:43.217Z,45.58
2023-04-12T12:44:12.232Z,45.40
2023-04-12T12:46:53.341Z,45.38
2023-04-12T12:49:23.223Z,45.56
2023-04-12T12:51:52.008Z,45.53
2023-04-12T12:54:36.029Z,45.27
2023-04-12T12:57:26.213Z,45.59
2023-04-12T13:00:17.383Z,45.42
2023-04-12T13:03:05.659Z,45.14
2023-04-12T13:05:33.765Z,44.85
2023-04-12T13:08:01.535Z,44.55
2023-04-12T13:10:29.665Z,44.55
2023-04-12T13:12:58.688Z,44.41
2023-04-12T13:15:26.563Z,44.82
2023-04-12T13:17:55.307Z,44.80
2023-04-12T13:20:23.568Z,44.53
2023-04-12T13:22:54.811Z,44.77
2023-04-12T13:25:22.595Z,45.15
2023-04-12T13:27:51.536Z,45.08
2023-04-12T13:30:20.381Z,44.99
2023-04-12T13:32:48.509Z,45.33
2023-04-12T13:35:16.281Z,45.83
2023-04-12T13:37:44.200Z,45.68
2023-04-12T13:40:13.403Z,45.80
2023-04-12T13:42:41.542Z,45.96
2023-04-12T13:45:12.036Z,46.04
2023-04-12T13:47:39.783Z,46.40
2023-04-12T13:50:08.451Z,46.35
2023-04-12T13:52:36.251Z,46.46
2023-04-12T13:55:08.065Z,46.21
2023-04-12T13:57:36.239Z,46.18
2023-04-12T14:00:07.256Z,46.35
2023-04-12T14:02:35.046Z,46.48
2023-04-12T14:05:05.335Z,46.53
2023-04-12T14:07:33.931Z,46.76
2023-04-12T14:10:05.652Z,47.15
2023-04-12T14:12:34.099Z,47.55
2023-04-12T14:15:04.664Z,47.59
2023-04-12T14:17:33.124Z,48.33
2023-04-12T14:20:01.000Z,48.82
2023-04-12T14:22:28.763Z,49.41
2023-04-12T14:24:56.419Z,50.49
2023-04-12T14:27:24.362Z,51.17
2023-04-12T14:29:52.648Z,51.88
2023-04-12T14:32:20.471Z,52.71
2023-04-12T14:34:48.458Z,53.73
2023-04-12T14:37:18.031Z,54.37
2023-04-12T14:39:45.919Z,54.85
2023-04-12T14:42:13.802Z,55.50
2023-04-12T14:44:45.374Z,55.91
2023-04-12T14:47:13.115Z,56.29
2023-04-12T14:49:40.852Z,56.66
2023-04-12T14:52:08.651Z,56.93
2023-04-12T14:54:38.377Z,57.21
2023-04-12T14:57:06.242Z,57.58
2023-04-12T14:59:35.765Z,57.81
2023-04-12T15:02:03.959Z,58.02
2023-04-12T15:04:31.985Z,58.20
2023-04-12T15:07:00.464Z,58.24
2023-04-12T15:09:28.741Z,58.46
2023-04-12T15:12:01.231Z,58.71
2023-04-12T15:14:31.646Z,58.68
2023-04-12T15:16:59.653Z,59.07
2023-04-12T15:19:27.818Z,59.35
2023-04-12T15:21:55.770Z,59.30
2023-04-12T15:24:24.703Z,59.25
2023-04-12T15:26:54.286Z,59.35
2023-04-12T15:29:28.249Z,59.44
2023-04-12T15:31:56.612Z,59.64
2023-04-12T15:34:25.286Z,59.42
2023-04-12T15:36:53.372Z,59.47
2023-04-12T15:39:21.538Z,59.04
2023-04-12T15:41:49.267Z,59.00
2023-04-12T15:44:17.475Z,58.93
2023-04-12T15:46:56.018Z,58.87
2023-04-12T15:49:29.339Z,59.01
2023-04-12T15:51:58.980Z,59.06
2023-04-12T15:54:28.525Z,59.07
2023-04-12T15:56:56.522Z,59.03
2023-04-12T15:59:24.621Z,59.09
2023-04-12T16:01:54.238Z,59.30
2023-04-12T16:04:22.119Z,59.13
2023-04-12T16:06:50.525Z,59.17
2023-04-12T16:09:18.810Z,58.89
2023-04-12T16:11:48.265Z,58.63
2023-04-12T16:14:16.416Z,58.55
2023-04-12T16:16:44.854Z,58.32
2023-04-12T16:19:12.709Z,58.15
2023-04-12T16:21:44.023Z,58.10
2023-04-12T16:24:13.302Z,57.91
2023-04-12T16:26:41.935Z,57.75
2023-04-12T16:29:10.713Z,57.30
2023-04-12T16:31:40.477Z,56.97
2023-04-12T16:34:08.634Z,56.56
2023-04-12T16:36:36.333Z,56.40
2023-04-12T16:39:06.630Z,56.14
2023-04-12T16:41:35.777Z,56.00
2023-04-12T16:44:03.604Z,55.82
2023-04-12T16:46:32.000Z,55.70
2023-04-12T16:49:03.741Z,55.31
2023-04-12T16:51:36.813Z,55.25
2023-04-12T16:54:05.596Z,54.89
2023-04-12T16:56:33.390Z,54.69
2023-04-12T16:59:01.174Z,54.64
2023-04-12T17:01:29.072Z,54.48
2023-04-12T17:03:57.370Z,54.31
2023-04-12T17:06:27.336Z,54.20
2023-04-12T17:08:55.273Z,54.18
2023-04-12T17:11:23.074Z,54.13
2023-04-12T17:13:54.020Z,54.11
2023-04-12T17:16:21.961Z,54.03
2023-04-12T17:19:00.990Z,53.91
2023-04-12T17:21:30.513Z,53.89
2023-04-12T17:24:00.476Z,53.78
2023-04-12T17:26:28.961Z,53.68
2023-04-12T17:28:58.775Z,53.59
2023-04-12T17:31:29.337Z,53.41
2023-04-12T17:33:57.516Z,53.44
2023-04-12T17:36:25.377Z,53.37
2023-04-12T17:38:54.249Z,53.11
2023-04-12T17:41:22.320Z,52.93
2023-04-12T17:43:50.504Z,52.76
2023-04-12T17:46:18.445Z,52.78
2023-04-12T17:48:46.401Z,52.69
2023-04-12T17:51:16.037Z,52.52
2023-04-12T17:53:43.995Z,52.34
2023-04-12T17:56:13.530Z,52.33
2023-04-12T17:58:43.506Z,52.23
2023-04-12T18:01:11.422Z,52.10
2023-04-12T18:03:39.238Z,52.10
2023-04-12T18:06:08.161Z,51.73
2023-04-12T18:08:37.549Z,51.69
2023-04-12T18:11:07.124Z,51.66
2023-04-12T18:13:35.143Z,51.67
2023-04-12T18:16:03.571Z,51.47
2023-04-12T18:18:31.356Z,51.44
2023-04-12T18:21:04.801Z,51.18
2023-04-12T18:23:33.067Z,51.26
2023-04-12T18:26:00.867Z,51.23
2023-04-12T18:28:31.418Z,51.10
2023-04-12T18:31:02.498Z,50.94
2023-04-12T18:33:31.875Z,50.90
2023-04-12T18:35:59.966Z,50.93
2023-04-12T18:38:32.362Z,50.90
2023-04-12T18:41:01.079Z,50.68
2023-04-12T18:43:33.318Z,50.68
2023-04-12T18:46:01.412Z,50.69
2023-04-12T18:48:31.078Z,50.65
2023-04-12T18:51:02.121Z,50.64
2023-04-12T18:53:32.278Z,50.62
2023-04-12T18:56:10.619Z,50.56
2023-04-12T18:58:53.896Z,50.61
2023-04-12T19:01:25.219Z,50.66
2023-04-12T19:03:53.406Z,50.55
2023-04-12T19:06:21.848Z,50.31
2023-04-12T19:08:50.407Z,50.31
2023-04-12T19:11:18.894Z,50.10
2023-04-12T19:13:47.494Z,50.24
2023-04-12T19:16:15.314Z,50.25
2023-04-12T19:18:45.254Z,50.21
2023-04-12T19:21:13.192Z,50.37
2023-04-12T19:23:40.935Z,50.47
2023-04-12T19:26:11.809Z,50.45
2023-04-12T19:28:39.948Z,50.51
2023-04-12T19:31:10.561Z,50.58
2023-04-12T19:33:41.551Z,50.52
2023-04-12T19:36:10.544Z,50.68
2023-04-12T19:38:41.246Z,50.54
2023-04-12T19:41:10.620Z,50.46
2023-04-12T19:43:38.779Z,50.57
2023-04-12T19:46:07.350Z,50.55
2023-04-12T19:48:37.430Z,50.63
2023-04-12T19:51:06.191Z,50.61
2023-04-12T19:53:34.131Z,50.52
2023-04-12T19:56:04.163Z,50.41
2023-04-12T19:58:34.711Z,50.45
2023-04-12T20:01:03.073Z,50.56
2023-04-12T20:03:31.534Z,50.56
2023-04-12T20:06:03.903Z,50.70
2023-04-12T20:08:32.017Z,50.44
2023-04-12T20:11:00.322Z,50.55
2023-04-12T20:13:31.451Z,50.50
2023-04-12T20:16:01.950Z,50.81
2023-04-12T20:18:30.764Z,50.48
2023-04-12T20:21:00.851Z,50.65
2023-04-12T20:23:28.824Z,50.49
2023-04-12T20:25:59.499Z,50.50
2023-04-12T20:28:27.356Z,50.48
2023-04-12T20:30:55.288Z,50.29
2023-04-12T20:33:23.288Z,50.26
2023-04-12T20:35:51.429Z,50.22
2023-04-12T20:38:19.270Z,50.22
2023-04-12T20:40:47.317Z,50.33
2023-04-12T20:43:15.600Z,50.49
2023-04-12T20:45:43.523Z,50.29
2023-04-12T20:48:12.551Z,50.34
2023-04-12T20:50:41.067Z,50.51
2023-04-12T20:53:15.833Z,50.52
2023-04-12T20:55:45.468Z,50.52
2023-04-12T20:58:14.299Z,50.65
2023-04-12T21:00:42.177Z,50.71
2023-04-12T21:03:10.947Z,50.83
2023-04-12T21:05:39.748Z,50.89
2023-04-12T21:08:08.980Z,50.99
2023-04-12T21:10:36.935Z,50.96
2023-04-12T21:13:04.602Z,50.73
2023-04-12T21:15:35.442Z,51.00
2023-04-12T21:18:04.187Z,51.06
2023-04-12T21:20:36.613Z,50.85
2023-04-12T21:23:07.059Z,50.85
2023-04-12T21:25:35.286Z,50.99
2023-04-12T21:28:03.481Z,50.76
2023-04-12T21:30:35.908Z,50.72
2023-04-12T21:33:06.056Z,50.77
2023-04-12T21:35:34.240Z,50.67
2023-04-12T21:38:01.995Z,50.62
2023-04-12T21:40:29.706Z,50.63
2023-04-12T21:42:57.587Z,50.57
2023-04-12T21:45:25.953Z,50.48
2023-04-12T21:47:53.877Z,50.56
2023-04-12T21:50:21.972Z,50.52
2023-04-12T21:52:49.701Z,50.52
2023-04-12T21:55:18.579Z,50.51
2023-04-12T21:57:46.364Z,50.42
2023-04-12T22:00:15.567Z,50.34
2023-04-12T22:02:44.169Z,50.25
2023-04-12T22:05:12.421Z,50.22
2023-04-12T22:07:40.833Z,50.05
2023-04-12T22:10:09.690Z,50.11
2023-04-12T22:12:39.787Z,49.96
2023-04-12T22:15:09.080Z,50.01
2023-04-12T22:17:37.599Z,49.88
2023-04-12T22:20:08.416Z,49.90
2023-04-12T22:22:37.333Z,49.83
2023-04-12T22:25:08.250Z,49.79
2023-04-12T22:27:36.185Z,49.67
2023-04-12T22:30:04.276Z,49.50
2023-04-12T22:32:32.992Z,49.57
2023-04-12T22:35:08.331Z,49.25
2023-04-12T22:37:39.033Z,49.36
2023-04-12T22:40:13.953Z,49.17
2023-04-12T22:42:46.045Z,49.22
2023-04-12T22:45:16.321Z,49.15
2023-04-12T22:47:45.755Z,49.13
2023-04-12T22:50:13.883Z,48.97
2023-04-12T22:52:42.009Z,49.01
2023-04-12T22:55:14.494Z,48.95
2023-04-12T22:57:43.924Z,48.89
2023-04-12T23:00:15.788Z,48.88
2023-04-12T23:02:46.564Z,48.77
2023-04-12T23:05:14.750Z,48.55
2023-04-12T23:07:43.393Z,48.42
2023-04-12T23:10:12.402Z,48.37
2023-04-12T23:12:40.255Z,48.32
2023-04-12T23:15:09.026Z,48.15
2023-04-12T23:17:37.320Z,48.18
2023-04-12T23:20:12.125Z,48.13
2023-04-12T23:23:00.027Z,48.20
2023-04-12T23:25:39.814Z,48.13
2023-04-12T23:28:13.564Z,48.36
2023-04-12T23:30:50.435Z,48.38
2023-04-12T23:33:21.455Z,48.45
2023-04-12T23:35:56.020Z,48.48
2023-04-12T23:38:27.065Z,48.39
2023-04-12T23:40:54.978Z,48.32
2023-04-12T23:43:25.498Z,48.29
2023-04-12T23:45:53.902Z,48.10
2023-04-12T23:48:23.320Z,48.17
2023-04-12T23:50:51.838Z,48.13
2023-04-12T23:53:20.539Z,48.04
2023-04-12T23:55:51.846Z,48.08
2023-04-12T23:58:20.730Z,48.26
